Airfield :
LOGIN :

Register | Disclaimer

   EN    FR    IT 

 










Legend :    VFR   Marginal VFR   IFR   Intensive IFR   Very Intensive IFR
Visi :
Ceiling :
>= 8 km
>= 3000ft
5 to 8 km
1000 to 3000 ft
1500m to 5 km
500 to 1000 ft
800 to 1500m
200 to 500 ft
< 800m
< 200 ft
Symbols :   Thunderstorms  Fog  Heavy snow  Heavy precipitations  Wind > 20 kt
SIGMETs :     Misc.  Thunderstorms  Icing  Turbulence  Mountain Waves  Volcanic Ashes







- Airport Elevation : 7 ft
- IATA code : ESH
- Download approach charts


EGKA - Shoreham

CURRENT METAR :
  • 221250Z 21011KT 9999 SCT045 19/10 Q1030

EXPIRED METARs :
  • 221220Z 21012KT 9999 SCT040 19/09 Q1030
  • 221150Z 20011KT 9999 FEW035 19/11 Q1030
  • 221120Z 20011KT 9999 FEW035 19/11 Q1030
  • 221050Z 32003KT 9999 FEW035 20/11 Q1030
  • 221020Z 36005KT 9999 FEW030 19/09 Q1030

TAF TAF EGKA
Valid from the 22 at 12:00 until the 22 at 19:00 UTC


221100Z 2212/2219 34010KT 9999 FEW035
PROB40 2212/2219 22005KT
ATIS : +44 1273 467 372
No reported NOTAMs for that airfield.



MET'MAP, your aeronautical weather chart ! - Copyright ORBIFLY December 2007 - Disclaimer

ORBIFLY MET'MAP TEAM :

Programming & Development : Alexandra Zaïnal
Concept & Development : Baudouin d'Aumeries
Co-Development & Prog : Marc-Olivier Méhu
Technical & hardware support : Manuel Goepfert

Contact : metmap@orbifly.com




SOURCES & CREDITS :

   NOAA